createdAt,value
2018-11-23T00:01:18.490Z,960.31
2018-11-23T00:03:44.774Z,960.30
2018-11-23T00:06:11.123Z,960.26
2018-11-23T00:08:37.414Z,960.27
2018-11-23T00:11:03.735Z,960.33
2018-11-23T00:13:30.048Z,960.30
2018-11-23T00:15:56.355Z,960.26
2018-11-23T00:18:22.684Z,960.43
2018-11-23T00:20:49.037Z,960.36
2018-11-23T00:23:15.358Z,960.39
2018-11-23T00:25:42.194Z,960.44
2018-11-23T00:28:07.977Z,960.46
2018-11-23T00:30:34.281Z,960.45
2018-11-23T00:33:00.612Z,960.51
2018-11-23T00:35:26.923Z,960.51
2018-11-23T00:37:53.269Z,960.51
2018-11-23T00:40:19.564Z,960.49
2018-11-23T00:42:45.850Z,960.54
2018-11-23T00:45:12.161Z,960.59
2018-11-23T00:47:38.500Z,960.51
2018-11-23T00:50:04.798Z,960.60
2018-11-23T00:52:31.113Z,960.62
2018-11-23T00:54:57.445Z,960.65
2018-11-23T00:57:23.769Z,960.67
2018-11-23T00:59:50.070Z,960.68
2018-11-23T01:02:16.369Z,960.70
2018-11-23T01:04:42.695Z,960.71
2018-11-23T01:07:08.980Z,960.74
2018-11-23T01:09:35.286Z,960.75
2018-11-23T01:12:01.657Z,960.74
2018-11-23T01:14:27.946Z,960.75
2018-11-23T01:16:54.267Z,960.75
2018-11-23T01:19:20.564Z,960.78
2018-11-23T01:21:46.877Z,960.76
2018-11-23T01:24:13.175Z,960.73
2018-11-23T01:26:39.497Z,960.75
2018-11-23T01:29:05.812Z,960.80
2018-11-23T01:31:32.096Z,960.84
2018-11-23T01:33:58.424Z,960.78
2018-11-23T01:36:24.741Z,960.71
2018-11-23T01:38:51.041Z,960.77
2018-11-23T01:41:17.371Z,960.77
2018-11-23T01:43:43.670Z,960.72
2018-11-23T01:46:09.979Z,960.71
2018-11-23T01:48:36.333Z,960.64
2018-11-23T01:51:02.663Z,960.76
2018-11-23T01:53:28.970Z,960.72
2018-11-23T01:55:55.286Z,960.76
2018-11-23T01:58:21.594Z,960.79
2018-11-23T02:00:47.902Z,960.82
2018-11-23T02:03:14.197Z,960.79
2018-11-23T02:05:40.497Z,960.79
2018-11-23T02:08:06.818Z,960.75
2018-11-23T02:10:33.121Z,960.69
2018-11-23T02:12:59.459Z,960.70
2018-11-23T02:15:25.747Z,960.66
2018-11-23T02:17:52.067Z,960.70
2018-11-23T02:20:18.375Z,960.74
2018-11-23T02:22:44.688Z,960.73
2018-11-23T02:25:10.990Z,960.76
2018-11-23T02:27:37.318Z,960.79
2018-11-23T02:30:07.194Z,960.77
2018-11-23T02:32:33.515Z,960.79
2018-11-23T02:34:59.822Z,960.78
2018-11-23T02:37:26.138Z,960.82
2018-11-23T02:39:52.471Z,960.82
2018-11-23T02:42:18.785Z,960.85
2018-11-23T02:44:45.068Z,960.88
2018-11-23T02:47:11.392Z,960.92
2018-11-23T02:49:37.739Z,960.89
2018-11-23T02:52:04.097Z,960.90
2018-11-23T02:54:30.401Z,960.94
2018-11-23T02:56:56.724Z,960.92
2018-11-23T02:59:23.999Z,960.95
2018-11-23T03:01:49.394Z,960.95
2018-11-23T03:04:15.698Z,961.00
2018-11-23T03:06:41.996Z,960.95
2018-11-23T03:09:08.305Z,960.97
2018-11-23T03:11:34.612Z,960.94
2018-11-23T03:14:00.923Z,961.04
2018-11-23T03:16:27.218Z,961.02
2018-11-23T03:18:53.523Z,961.00
2018-11-23T03:21:19.836Z,961.03
2018-11-23T03:23:46.125Z,961.06
2018-11-23T03:26:12.438Z,961.11
2018-11-23T03:28:38.739Z,961.13
2018-11-23T03:31:12.057Z,961.12
2018-11-23T03:33:31.340Z,961.15
2018-11-23T03:35:57.642Z,961.15
2018-11-23T03:38:23.955Z,961.14
2018-11-23T03:40:50.267Z,961.11
2018-11-23T03:43:16.570Z,961.12
2018-11-23T03:45:42.873Z,961.11
2018-11-23T03:48:09.156Z,961.05
2018-11-23T03:50:35.468Z,961.12
2018-11-23T03:53:01.785Z,961.09
2018-11-23T03:55:28.102Z,961.12
2018-11-23T03:57:56.478Z,961.07
2018-11-23T04:00:20.733Z,961.10
2018-11-23T04:02:47.043Z,961.04
2018-11-23T04:05:13.335Z,961.07
2018-11-23T04:07:39.636Z,961.09
2018-11-23T04:10:05.982Z,961.14
2018-11-23T04:12:32.274Z,961.17
2018-11-23T04:14:58.595Z,961.16
2018-11-23T04:17:24.910Z,961.20
2018-11-23T04:19:51.202Z,961.28
2018-11-23T04:22:17.530Z,961.28
2018-11-23T04:24:43.825Z,961.18
2018-11-23T04:27:10.107Z,961.21
2018-11-23T04:29:36.403Z,961.18
2018-11-23T04:32:02.707Z,961.17
2018-11-23T04:34:29.005Z,961.20
2018-11-23T04:36:55.336Z,961.23
2018-11-23T04:39:21.633Z,961.17
2018-11-23T04:41:47.948Z,961.14
2018-11-23T04:44:14.259Z,961.17
2018-11-23T04:46:40.622Z,961.15
2018-11-23T04:49:06.925Z,961.17
2018-11-23T04:51:33.298Z,961.26
2018-11-23T04:53:59.661Z,961.22
2018-11-23T04:56:25.949Z,961.25
2018-11-23T04:58:52.244Z,961.31
2018-11-23T05:01:18.566Z,961.29
2018-11-23T05:03:44.897Z,961.33
2018-11-23T05:06:11.218Z,961.39
2018-11-23T05:08:37.577Z,961.40
2018-11-23T05:11:03.898Z,961.34
2018-11-23T05:13:30.212Z,961.37
2018-11-23T05:15:56.519Z,961.34
2018-11-23T05:18:22.886Z,961.44
2018-11-23T05:20:49.196Z,961.43
2018-11-23T05:23:15.549Z,961.44
2018-11-23T05:25:41.875Z,961.47
2018-11-23T05:28:08.167Z,961.53
2018-11-23T05:30:34.470Z,961.50
2018-11-23T05:33:00.791Z,961.49
2018-11-23T05:35:27.086Z,961.58
2018-11-23T05:37:53.383Z,961.52
2018-11-23T05:40:19.696Z,961.54
2018-11-23T05:42:46.017Z,961.63
2018-11-23T05:45:12.334Z,961.63
2018-11-23T05:47:38.657Z,961.63
2018-11-23T05:50:04.947Z,961.66
2018-11-23T05:52:31.232Z,961.70
2018-11-23T05:54:57.555Z,961.72
2018-11-23T05:57:23.868Z,961.67
2018-11-23T05:59:50.227Z,961.70
2018-11-23T06:02:16.472Z,961.79
2018-11-23T06:04:42.805Z,961.82
2018-11-23T06:07:09.113Z,961.85
2018-11-23T06:09:35.475Z,961.82
2018-11-23T06:12:01.797Z,961.83
2018-11-23T06:14:28.120Z,961.87
2018-11-23T06:16:54.377Z,961.93
2018-11-23T06:19:20.698Z,961.97
2018-11-23T06:21:47.019Z,961.92
2018-11-23T06:24:13.306Z,961.91
2018-11-23T06:26:39.664Z,962.01
2018-11-23T06:29:05.964Z,962.02
2018-11-23T06:31:32.286Z,962.05
2018-11-23T06:33:58.618Z,962.13
2018-11-23T06:36:24.994Z,962.20
2018-11-23T06:38:51.285Z,962.18
2018-11-23T06:41:17.579Z,962.23
2018-11-23T06:43:43.892Z,962.35
2018-11-23T06:46:10.168Z,962.34
2018-11-23T06:48:36.499Z,962.37
2018-11-23T06:51:02.792Z,962.42
2018-11-23T06:53:29.081Z,962.38
2018-11-23T06:55:55.393Z,962.40
2018-11-23T06:58:21.715Z,962.44
2018-11-23T07:00:48.013Z,962.40
2018-11-23T07:05:58.543Z,962.42
2018-11-23T07:08:24.822Z,962.47
2018-11-23T07:10:51.109Z,962.41
2018-11-23T07:13:17.443Z,962.42
2018-11-23T07:15:43.767Z,962.44
2018-11-23T07:18:10.067Z,962.39
2018-11-23T07:20:36.361Z,962.37
2018-11-23T07:23:02.690Z,962.44
2018-11-23T07:25:28.977Z,962.53
2018-11-23T07:27:55.361Z,962.62
2018-11-23T07:30:21.702Z,962.62
2018-11-23T07:32:48.036Z,962.64
2018-11-23T07:35:14.373Z,962.62
2018-11-23T07:37:40.670Z,962.71
2018-11-23T07:40:06.984Z,962.78
2018-11-23T07:42:33.291Z,962.79
2018-11-23T07:44:59.598Z,962.75
2018-11-23T07:47:25.934Z,962.74
2018-11-23T07:49:52.254Z,962.73
2018-11-23T07:52:18.566Z,962.74
2018-11-23T07:54:44.858Z,962.79
2018-11-23T07:57:11.229Z,962.77
2018-11-23T07:59:37.556Z,962.77
2018-11-23T08:02:03.844Z,962.73
2018-11-23T08:04:30.190Z,962.83
2018-11-23T08:06:56.488Z,962.82
2018-11-23T08:09:22.803Z,962.88
2018-11-23T08:11:49.104Z,962.95
2018-11-23T08:14:15.425Z,962.94
2018-11-23T08:16:41.727Z,962.98
2018-11-23T08:19:08.025Z,963.05
2018-11-23T08:21:34.352Z,963.05
2018-11-23T08:24:00.665Z,962.97
2018-11-23T08:26:27.052Z,962.99
2018-11-23T08:28:53.352Z,963.03
2018-11-23T08:31:19.643Z,963.05
2018-11-23T08:33:45.953Z,963.09
2018-11-23T08:36:12.286Z,963.05
2018-11-23T08:38:38.602Z,963.03
2018-11-23T08:41:05.511Z,962.98
2018-11-23T08:43:31.191Z,963.03
2018-11-23T08:45:57.480Z,962.96
2018-11-23T08:48:23.783Z,962.96
2018-11-23T08:50:50.205Z,963.01
2018-11-23T08:53:16.528Z,962.99
2018-11-23T08:55:42.832Z,963.01
2018-11-23T08:58:09.143Z,962.95
2018-11-23T09:00:35.442Z,962.95
2018-11-23T09:03:01.750Z,962.95
2018-11-23T09:05:28.068Z,962.96
2018-11-23T09:07:54.408Z,962.88
2018-11-23T09:10:20.713Z,962.99
2018-11-23T09:12:47.000Z,962.89
2018-11-23T09:15:13.295Z,962.90
2018-11-23T09:17:39.629Z,962.91
2018-11-23T09:20:05.965Z,962.91
2018-11-23T09:22:32.296Z,962.87
2018-11-23T09:24:58.610Z,962.81
2018-11-23T09:27:24.905Z,962.80
2018-11-23T09:29:51.213Z,962.81
2018-11-23T09:32:17.534Z,962.80
2018-11-23T09:34:43.841Z,962.76
2018-11-23T09:37:10.150Z,962.75
2018-11-23T09:39:36.594Z,962.76
2018-11-23T09:42:02.731Z,962.75
2018-11-23T09:44:29.060Z,962.72
2018-11-23T09:46:55.387Z,962.66
2018-11-23T09:49:21.755Z,962.75
2018-11-23T09:51:48.000Z,962.77
2018-11-23T09:54:14.327Z,962.73
2018-11-23T09:56:40.629Z,962.71
2018-11-23T09:59:06.945Z,962.75
2018-11-23T10:01:33.268Z,962.75
2018-11-23T10:03:59.554Z,962.69
2018-11-23T10:06:25.879Z,962.69
2018-11-23T10:08:52.143Z,962.70
2018-11-23T10:11:18.434Z,962.71
2018-11-23T10:13:44.762Z,962.69
2018-11-23T10:16:11.038Z,962.68
2018-11-23T10:18:37.370Z,962.64
2018-11-23T10:21:03.657Z,962.65
2018-11-23T10:23:30.004Z,962.65
2018-11-23T10:25:56.279Z,962.65
2018-11-23T10:28:22.574Z,962.66
2018-11-23T10:30:48.883Z,962.59
2018-11-23T10:33:15.183Z,962.60
2018-11-23T10:35:41.528Z,962.61
2018-11-23T10:38:07.793Z,962.59
2018-11-23T10:40:34.090Z,962.62
2018-11-23T10:43:00.403Z,962.57
2018-11-23T10:45:26.719Z,962.47
2018-11-23T10:47:53.043Z,962.54
2018-11-23T10:50:19.350Z,962.60
2018-11-23T10:52:45.656Z,962.56
2018-11-23T10:55:11.946Z,962.58
2018-11-23T10:57:38.270Z,962.60
2018-11-23T11:00:07.715Z,962.49
2018-11-23T11:02:34.013Z,962.55
2018-11-23T11:05:00.379Z,962.46
2018-11-23T11:07:26.682Z,962.49
2018-11-23T11:09:53.152Z,962.47
2018-11-23T11:12:19.449Z,962.44
2018-11-23T11:14:45.745Z,962.43
2018-11-23T11:17:12.037Z,962.38
2018-11-23T11:19:38.336Z,962.39
2018-11-23T11:22:04.624Z,962.34
2018-11-23T11:24:30.958Z,962.26
2018-11-23T11:26:57.261Z,962.31
2018-11-23T11:29:23.581Z,962.28
2018-11-23T11:31:49.869Z,962.32
2018-11-23T11:34:16.150Z,962.29
2018-11-23T11:36:42.515Z,962.23
2018-11-23T11:39:08.861Z,962.27
2018-11-23T11:41:35.213Z,962.21
2018-11-23T11:44:01.556Z,962.28
2018-11-23T11:46:27.843Z,962.33
2018-11-23T11:48:54.150Z,962.26
2018-11-23T11:51:20.474Z,962.26
2018-11-23T11:53:46.768Z,962.21
2018-11-23T11:56:13.073Z,962.28
2018-11-23T11:58:39.382Z,962.23
2018-11-23T12:01:05.699Z,962.23
2018-11-23T12:03:32.020Z,962.19
2018-11-23T12:05:58.321Z,962.16
2018-11-23T12:08:24.622Z,962.12
2018-11-23T12:10:50.936Z,962.19
2018-11-23T12:13:17.255Z,962.21
2018-11-23T12:15:43.558Z,962.13
2018-11-23T12:18:09.845Z,962.20
2018-11-23T12:20:36.142Z,962.24
2018-11-23T12:23:02.467Z,962.27
2018-11-23T12:25:28.752Z,962.35
2018-11-23T12:27:55.049Z,962.31
2018-11-23T12:30:21.375Z,962.35
2018-11-23T12:32:47.681Z,962.27
2018-11-23T12:35:14.006Z,962.29
2018-11-23T12:37:40.325Z,962.27
2018-11-23T12:40:06.638Z,962.34
2018-11-23T12:42:32.945Z,962.32
2018-11-23T12:44:59.245Z,962.33
2018-11-23T12:47:25.551Z,962.32
2018-11-23T12:49:51.849Z,962.30
2018-11-23T12:52:18.169Z,962.28
2018-11-23T12:54:44.523Z,962.35
2018-11-23T12:57:10.829Z,962.36
2018-11-23T12:59:37.156Z,962.34
2018-11-23T13:02:03.476Z,962.32
2018-11-23T13:04:29.793Z,962.34
2018-11-23T13:06:56.118Z,962.24
2018-11-23T13:09:22.460Z,962.29
2018-11-23T13:11:48.747Z,962.24
2018-11-23T13:14:15.073Z,962.28
2018-11-23T13:16:41.358Z,962.36
2018-11-23T13:19:07.689Z,962.30
2018-11-23T13:21:33.980Z,962.21
2018-11-23T13:24:00.301Z,962.21
2018-11-23T13:26:26.666Z,962.22
2018-11-23T13:28:52.962Z,962.27
2018-11-23T13:31:19.259Z,962.22
2018-11-23T13:33:45.623Z,962.14
2018-11-23T13:36:11.960Z,962.18
2018-11-23T13:38:38.238Z,962.13
2018-11-23T13:41:04.518Z,962.13
2018-11-23T13:43:30.821Z,962.15
2018-11-23T13:45:57.121Z,962.10
2018-11-23T13:48:23.434Z,962.08
2018-11-23T13:50:49.721Z,962.11
2018-11-23T13:53:16.051Z,962.05
2018-11-23T13:55:42.364Z,962.12
2018-11-23T13:58:08.653Z,962.05
2018-11-23T14:00:34.977Z,962.08
2018-11-23T14:03:01.269Z,962.02
2018-11-23T14:05:27.589Z,962.12
2018-11-23T14:07:53.909Z,962.08
2018-11-23T14:10:20.238Z,962.10
2018-11-23T14:12:46.524Z,962.08
2018-11-23T14:15:12.840Z,962.13
2018-11-23T14:17:39.152Z,962.19
2018-11-23T14:20:05.437Z,962.20
2018-11-23T14:22:31.745Z,962.23
2018-11-23T14:24:58.075Z,962.21
2018-11-23T14:27:24.389Z,962.23
2018-11-23T14:29:50.773Z,962.23
2018-11-23T14:32:17.105Z,962.21
2018-11-23T14:34:43.418Z,962.17
2018-11-23T14:37:09.795Z,962.16
2018-11-23T14:39:36.131Z,962.11
2018-11-23T14:42:02.451Z,962.20
2018-11-23T14:44:28.811Z,962.23
2018-11-23T14:46:55.188Z,962.17
2018-11-23T14:49:21.486Z,962.28
2018-11-23T14:51:47.813Z,962.29
2018-11-23T14:54:14.138Z,962.32
2018-11-23T14:56:40.456Z,962.41
2018-11-23T14:59:06.745Z,962.35
2018-11-23T15:01:33.069Z,962.38
2018-11-23T15:03:59.379Z,962.36
2018-11-23T15:06:25.724Z,962.34
2018-11-23T15:08:52.013Z,962.31
2018-11-23T15:11:18.342Z,962.42
2018-11-23T15:13:44.697Z,962.44
2018-11-23T15:16:11.028Z,962.47
2018-11-23T15:18:37.340Z,962.52
2018-11-23T15:21:03.645Z,962.58
2018-11-23T15:23:29.952Z,962.58
2018-11-23T15:25:56.274Z,962.56
2018-11-23T15:28:22.636Z,962.56
2018-11-23T15:30:48.919Z,962.53
2018-11-23T15:33:15.247Z,962.50
2018-11-23T15:35:41.554Z,962.62
2018-11-23T15:38:10.285Z,962.69
2018-11-23T15:40:34.186Z,962.62
2018-11-23T15:43:00.508Z,962.67
2018-11-23T15:45:26.821Z,962.67
2018-11-23T15:47:53.109Z,962.68
2018-11-23T15:50:19.427Z,962.66
2018-11-23T15:52:45.739Z,962.66
2018-11-23T15:55:12.038Z,962.63
2018-11-23T15:57:38.379Z,962.56
2018-11-23T16:00:04.686Z,962.50
2018-11-23T16:02:31.004Z,962.67
2018-11-23T16:04:57.326Z,962.72
2018-11-23T16:07:23.636Z,962.75
2018-11-23T16:09:49.960Z,962.75
2018-11-23T16:12:16.276Z,962.85
2018-11-23T16:14:42.560Z,962.90
2018-11-23T16:17:08.851Z,962.88
2018-11-23T16:19:35.155Z,962.86
2018-11-23T16:22:01.481Z,962.90
2018-11-23T16:24:27.800Z,962.87
2018-11-23T16:26:54.167Z,962.88
2018-11-23T16:29:20.515Z,962.91
2018-11-23T16:31:46.803Z,962.92
2018-11-23T16:34:13.180Z,962.95
2018-11-23T16:36:39.557Z,962.90
2018-11-23T16:39:05.893Z,962.88
2018-11-23T16:41:32.125Z,962.93
2018-11-23T16:43:58.425Z,962.93
2018-11-23T16:46:24.746Z,962.96
2018-11-23T16:48:51.084Z,962.93
2018-11-23T16:51:17.379Z,962.96
2018-11-23T16:53:43.726Z,963.00
2018-11-23T16:56:10.036Z,963.01
2018-11-23T16:58:36.391Z,963.00
2018-11-23T17:01:02.695Z,963.03
2018-11-23T17:03:28.984Z,962.99
2018-11-23T17:05:55.277Z,962.95
2018-11-23T17:08:21.584Z,962.91
2018-11-23T17:10:47.903Z,962.97
2018-11-23T17:13:14.208Z,962.96
2018-11-23T17:15:40.533Z,962.95
2018-11-23T17:18:06.837Z,962.97
2018-11-23T17:20:33.146Z,962.95
2018-11-23T17:22:59.445Z,962.96
2018-11-23T17:25:25.734Z,962.96
2018-11-23T17:27:52.082Z,963.00
2018-11-23T17:30:19.662Z,962.98
2018-11-23T17:32:45.944Z,963.02
2018-11-23T17:35:12.340Z,963.03
2018-11-23T17:37:38.628Z,962.99
2018-11-23T17:40:04.938Z,963.02
2018-11-23T17:42:31.249Z,963.03
2018-11-23T17:44:57.557Z,963.06
2018-11-23T17:47:23.872Z,963.06
2018-11-23T17:49:50.200Z,963.14
2018-11-23T17:52:16.567Z,963.04
2018-11-23T17:54:42.869Z,963.08
2018-11-23T17:57:09.183Z,963.09
2018-11-23T17:59:35.459Z,963.03
2018-11-23T18:02:01.765Z,963.04
2018-11-23T18:04:28.081Z,963.08
2018-11-23T18:06:54.380Z,963.09
2018-11-23T18:09:20.706Z,963.18
2018-11-23T18:11:47.013Z,963.21
2018-11-23T18:14:13.327Z,963.12
2018-11-23T18:16:39.675Z,963.13
2018-11-23T18:19:06.074Z,963.17
2018-11-23T18:21:32.378Z,963.15
2018-11-23T18:23:58.695Z,963.17
2018-11-23T18:26:24.993Z,963.17
2018-11-23T18:28:51.318Z,963.18
2018-11-23T18:31:17.632Z,963.18
2018-11-23T18:33:43.946Z,963.10
2018-11-23T18:36:10.226Z,963.09
2018-11-23T18:38:36.533Z,963.10
2018-11-23T18:41:02.864Z,963.12
2018-11-23T18:43:29.183Z,963.16
2018-11-23T18:45:55.492Z,963.11
2018-11-23T18:48:21.846Z,963.14
2018-11-23T18:50:48.150Z,963.14
2018-11-23T18:53:14.461Z,963.09
2018-11-23T18:55:40.830Z,963.11
2018-11-23T18:58:07.127Z,963.14
2018-11-23T19:00:33.419Z,963.17
2018-11-23T19:02:59.736Z,963.10
2018-11-23T19:05:26.039Z,963.14
2018-11-23T19:07:52.344Z,963.15
2018-11-23T19:10:18.667Z,963.06
2018-11-23T19:12:45.044Z,963.08
2018-11-23T19:15:11.410Z,963.15
2018-11-23T19:17:37.725Z,963.10
2018-11-23T19:20:04.068Z,963.09
2018-11-23T19:22:30.360Z,963.15
2018-11-23T19:24:56.676Z,963.19
2018-11-23T19:27:22.989Z,963.19
2018-11-23T19:29:49.304Z,963.15
2018-11-23T19:32:15.665Z,963.19
2018-11-23T19:34:41.975Z,963.22
2018-11-23T19:37:08.286Z,963.21
2018-11-23T19:39:34.599Z,963.22
2018-11-23T19:42:00.896Z,963.23
2018-11-23T19:44:27.211Z,963.23
2018-11-23T19:46:53.560Z,963.24
2018-11-23T19:49:19.866Z,963.26
2018-11-23T19:51:46.165Z,963.30
2018-11-23T19:54:12.454Z,963.38
2018-11-23T19:56:38.785Z,963.33
2018-11-23T19:59:05.079Z,963.31
2018-11-23T20:01:31.427Z,963.30
2018-11-23T20:03:57.720Z,963.31
2018-11-23T20:06:24.035Z,963.33
2018-11-23T20:08:50.317Z,963.27
2018-11-23T20:11:16.602Z,963.33
2018-11-23T20:13:42.911Z,963.30
2018-11-23T20:16:09.235Z,963.29
2018-11-23T20:18:35.516Z,963.29
2018-11-23T20:21:01.836Z,963.24
2018-11-23T20:23:28.167Z,963.28
2018-11-23T20:25:54.476Z,963.25
2018-11-23T20:28:20.824Z,963.28
2018-11-23T20:30:47.161Z,963.29
2018-11-23T20:33:13.533Z,963.36
2018-11-23T20:35:39.851Z,963.30
2018-11-23T20:38:06.186Z,963.29
2018-11-23T20:40:32.465Z,963.33
2018-11-23T20:42:58.828Z,963.28
2018-11-23T20:45:25.171Z,963.36
2018-11-23T20:47:51.473Z,963.41
2018-11-23T20:50:17.764Z,963.41
2018-11-23T20:52:44.075Z,963.41
2018-11-23T20:55:10.411Z,963.41
2018-11-23T20:57:36.728Z,963.41
2018-11-23T21:00:11.921Z,963.48
2018-11-23T21:02:38.253Z,963.45
2018-11-23T21:05:04.534Z,963.45
2018-11-23T21:07:30.831Z,963.47
2018-11-23T21:09:57.147Z,963.44
2018-11-23T21:12:23.493Z,963.46
2018-11-23T21:14:49.811Z,963.40
2018-11-23T21:17:16.120Z,963.44
2018-11-23T21:19:42.473Z,963.45
2018-11-23T21:22:08.758Z,963.47
2018-11-23T21:24:35.088Z,963.47
2018-11-23T21:27:01.368Z,963.54
2018-11-23T21:29:27.751Z,963.44
2018-11-23T21:31:54.082Z,963.44
2018-11-23T21:34:20.380Z,963.42
2018-11-23T21:36:46.721Z,963.48
2018-11-23T21:39:13.675Z,963.44
2018-11-23T21:41:39.448Z,963.45
2018-11-23T21:44:05.743Z,963.39
2018-11-23T21:46:32.072Z,963.42
2018-11-23T21:48:58.386Z,963.42
2018-11-23T21:51:24.665Z,963.29
2018-11-23T21:53:50.992Z,963.33
2018-11-23T21:56:17.313Z,963.33
2018-11-23T21:58:43.681Z,963.38
2018-11-23T22:01:09.940Z,963.43
2018-11-23T22:03:36.268Z,963.43
2018-11-23T22:06:02.576Z,963.47
2018-11-23T22:08:28.896Z,963.43
2018-11-23T22:10:55.223Z,963.33
2018-11-23T22:13:21.524Z,963.31
2018-11-23T22:15:47.850Z,963.38
2018-11-23T22:18:14.173Z,963.36
2018-11-23T22:20:40.507Z,963.34
2018-11-23T22:23:06.828Z,963.36
2018-11-23T22:25:33.145Z,963.36
2018-11-23T22:27:59.447Z,963.31
2018-11-23T22:30:26.898Z,963.28
2018-11-23T22:32:53.217Z,963.30
2018-11-23T22:35:19.546Z,963.28
2018-11-23T22:37:45.880Z,963.29
2018-11-23T22:40:12.171Z,963.31
2018-11-23T22:42:38.484Z,963.24
2018-11-23T22:45:04.801Z,963.26
2018-11-23T22:47:31.148Z,963.25
2018-11-23T22:49:57.494Z,963.22
2018-11-23T22:52:23.798Z,963.27
2018-11-23T22:54:50.091Z,963.20
2018-11-23T22:57:16.384Z,963.20
2018-11-23T22:59:42.706Z,963.16
2018-11-23T23:02:09.020Z,963.26
2018-11-23T23:04:35.364Z,963.30
2018-11-23T23:07:01.684Z,963.31
2018-11-23T23:09:28.008Z,963.28
2018-11-23T23:11:54.326Z,963.30
2018-11-23T23:14:20.610Z,963.32
2018-11-23T23:16:46.918Z,963.28
2018-11-23T23:19:13.237Z,963.26
2018-11-23T23:21:39.541Z,963.33
2018-11-23T23:24:11.589Z,963.31
2018-11-23T23:26:32.189Z,963.24
2018-11-23T23:28:58.476Z,963.36
2018-11-23T23:31:24.788Z,963.29
2018-11-23T23:33:51.167Z,963.35
2018-11-23T23:36:17.463Z,963.33
2018-11-23T23:38:43.771Z,963.32
2018-11-23T23:41:10.088Z,963.38
2018-11-23T23:43:36.435Z,963.38
2018-11-23T23:46:02.736Z,963.36
2018-11-23T23:48:29.066Z,963.34
2018-11-23T23:50:55.396Z,963.44
2018-11-23T23:53:21.678Z,963.38
2018-11-23T23:55:47.988Z,963.35
2018-11-23T23:58:14.294Z,963.30
